sensor_id;sensor_type;location;lat;lon;timestamp;temperature;humidity
20450;DHT22;10384;51.940;8.432;2022-12-20T21:14:01;7.80;99.90
20450;DHT22;10384;51.940;8.432;2022-12-20T21:16:27;8.00;99.90
20450;DHT22;10384;51.940;8.432;2022-12-20T21:18:55;8.00;99.90
20450;DHT22;10384;51.940;8.432;2022-12-20T21:21:21;8.00;99.90
20450;DHT22;10384;51.940;8.432;2022-12-20T21:23:47;8.10;99.90
20450;DHT22;10384;51.940;8.432;2022-12-20T21:26:15;8.00;99.90
20450;DHT22;10384;51.940;8.432;2022-12-20T21:28:41;8.10;99.90
20450;DHT22;10384;51.940;8.432;2022-12-20T21:31:14;8.20;99.90
20450;DHT22;10384;51.940;8.432;2022-12-20T21:33:40;8.20;99.90
20450;DHT22;10384;51.940;8.432;2022-12-20T21:36:09;8.30;99.90
20450;DHT22;10384;51.940;8.432;2022-12-20T21:38:35;8.40;99.90
20450;DHT22;10384;51.940;8.432;2022-12-20T21:41:03;8.40;99.90
20450;DHT22;10384;51.940;8.432;2022-12-20T21:43:29;8.50;99.90
20450;DHT22;10384;51.940;8.432;2022-12-20T21:45:55;8.50;99.90
20450;DHT22;10384;51.940;8.432;2022-12-20T21:48:21;8.60;99.90
20450;DHT22;10384;51.940;8.432;2022-12-20T21:51:07;8.60;99.90
20450;DHT22;10384;51.940;8.432;2022-12-20T21:53:35;8.70;99.90
20450;DHT22;10384;51.940;8.432;2022-12-20T21:56:01;8.70;99.90
20450;DHT22;10384;51.940;8.432;2022-12-20T21:58:28;8.70;99.90
20450;DHT22;10384;51.940;8.432;2022-12-20T22:00:55;8.70;99.90
20450;DHT22;10384;51.940;8.432;2022-12-20T22:03:22;8.70;99.90
20450;DHT22;10384;51.940;8.432;2022-12-20T22:05:49;8.70;99.90
20450;DHT22;10384;51.940;8.432;2022-12-20T22:08:16;8.70;99.90
20450;DHT22;10384;51.940;8.432;2022-12-20T22:10:42;8.70;99.90
20450;DHT22;10384;51.940;8.432;2022-12-20T22:13:09;8.80;99.90
20450;DHT22;10384;51.940;8.432;2022-12-20T22:15:38;8.80;99.90
20450;DHT22;10384;51.940;8.432;2022-12-20T22:18:07;8.80;99.90
20450;DHT22;10384;51.940;8.432;2022-12-20T22:20:34;8.80;99.90
20450;DHT22;10384;51.940;8.432;2022-12-20T22:23:00;8.90;99.90
20450;DHT22;10384;51.940;8.432;2022-12-20T22:25:26;8.80;99.90
20450;DHT22;10384;51.940;8.432;2022-12-20T22:27:52;8.80;99.90
20450;DHT22;10384;51.940;8.432;2022-12-20T22:30:18;8.80;99.90
20450;DHT22;10384;51.940;8.432;2022-12-20T22:32:43;8.80;99.90
20450;DHT22;10384;51.940;8.432;2022-12-20T22:35:09;8.70;99.90
20450;DHT22;10384;51.940;8.432;2022-12-20T22:37:35;8.80;99.90
20450;DHT22;10384;51.940;8.432;2022-12-20T22:40:00;8.80;99.90
20450;DHT22;10384;51.940;8.432;2022-12-20T22:42:26;8.80;99.90
20450;DHT22;10384;51.940;8.432;2022-12-20T22:44:51;8.80;99.90
20450;DHT22;10384;51.940;8.432;2022-12-20T22:47:18;8.80;99.90
20450;DHT22;10384;51.940;8.432;2022-12-20T22:49:44;8.80;99.90
20450;DHT22;10384;51.940;8.432;2022-12-20T22:52:09;8.80;99.90
20450;DHT22;10384;51.940;8.432;2022-12-20T22:54:35;8.80;99.90
20450;DHT22;10384;51.940;8.432;2022-12-20T22:57:00;8.90;99.90
20450;DHT22;10384;51.940;8.432;2022-12-20T22:59:26;8.80;99.90
20450;DHT22;10384;51.940;8.432;2022-12-20T23:01:52;8.90;99.90
20450;DHT22;10384;51.940;8.432;2022-12-20T23:04:17;8.70;99.90
20450;DHT22;10384;51.940;8.432;2022-12-20T23:06:43;8.90;99.90
20450;DHT22;10384;51.940;8.432;2022-12-20T23:09:08;8.90;99.90
20450;DHT22;10384;51.940;8.432;2022-12-20T23:11:34;8.90;99.90
20450;DHT22;10384;51.940;8.432;2022-12-20T23:14:20;8.90;99.90
20450;DHT22;10384;51.940;8.432;2022-12-20T23:17:07;8.90;99.90
20450;DHT22;10384;51.940;8.432;2022-12-20T23:19:32;9.00;99.90
20450;DHT22;10384;51.940;8.432;2022-12-20T23:22:20;9.00;99.90
20450;DHT22;10384;51.940;8.432;2022-12-20T23:25:07;9.00;99.90
20450;DHT22;10384;51.940;8.432;2022-12-20T23:27:33;9.00;99.90
20450;DHT22;10384;51.940;8.432;2022-12-20T23:29:59;9.00;99.90
20450;DHT22;10384;51.940;8.432;2022-12-20T23:32:24;9.00;99.90
20450;DHT22;10384;51.940;8.432;2022-12-20T23:34:50;9.10;99.90
20450;DHT22;10384;51.940;8.432;2022-12-20T23:37:16;9.00;99.90
20450;DHT22;10384;51.940;8.432;2022-12-20T23:39:41;9.00;99.90
20450;DHT22;10384;51.940;8.432;2022-12-20T23:42:07;9.00;99.90
20450;DHT22;10384;51.940;8.432;2022-12-20T23:44:33;9.00;99.90
20450;DHT22;10384;51.940;8.432;2022-12-20T23:46:59;9.00;99.90
20450;DHT22;10384;51.940;8.432;2022-12-20T23:49:24;9.10;99.90
20450;DHT22;10384;51.940;8.432;2022-12-20T23:51:50;9.00;99.90
20450;DHT22;10384;51.940;8.432;2022-12-20T23:54:15;9.00;99.90
20450;DHT22;10384;51.940;8.432;2022-12-20T23:56:44;9.00;99.90
20450;DHT22;10384;51.940;8.432;2022-12-20T23:59:09;9.10;99.90
